sensor_id;sensor_type;location;lat;lon;timestamp;noise_LAeq;noise_LA_min;noise_LA_max;noise_LA01;noise_LA95
60503;Laerm;51448;51.660;5.824;2024-02-14T00:01:33;42.78;30.67;62.89;;
60503;Laerm;51448;51.660;5.824;2024-02-14T00:04:01;37.55;31.19;51.28;;
60503;Laerm;51448;51.660;5.824;2024-02-14T00:06:29;37.49;30.67;58.36;;
60503;Laerm;51448;51.660;5.824;2024-02-14T00:08:56;34.93;30.64;47.76;;
60503;Laerm;51448;51.660;5.824;2024-02-14T00:11:24;33.76;30.46;42.93;;
60503;Laerm;51448;51.660;5.824;2024-02-14T00:13:52;33.63;30.54;50.15;;
60503;Laerm;51448;51.660;5.824;2024-02-14T00:16:19;33.16;30.18;43.94;;
60503;Laerm;51448;51.660;5.824;2024-02-14T00:18:47;33.82;30.82;46.78;;
60503;Laerm;51448;51.660;5.824;2024-02-14T00:21:15;33.91;30.47;43.65;;
60503;Laerm;51448;51.660;5.824;2024-02-14T00:23:42;35.87;30.84;44.59;;
60503;Laerm;51448;51.660;5.824;2024-02-14T00:26:11;35.92;30.54;54.54;;
60503;Laerm;51448;51.660;5.824;2024-02-14T00:28:38;34.38;29.92;54.64;;
60503;Laerm;51448;51.660;5.824;2024-02-14T00:31:06;39.07;30.42;61.63;;
60503;Laerm;51448;51.660;5.824;2024-02-14T00:33:33;39.73;30.62;61.60;;
60503;Laerm;51448;51.660;5.824;2024-02-14T00:36:01;33.83;29.95;53.21;;
60503;Laerm;51448;51.660;5.824;2024-02-14T00:38:29;32.66;30.27;43.76;;
60503;Laerm;51448;51.660;5.824;2024-02-14T00:40:56;38.66;30.60;58.69;;
60503;Laerm;51448;51.660;5.824;2024-02-14T00:43:24;35.83;30.96;45.46;;
60503;Laerm;51448;51.660;5.824;2024-02-14T00:45:52;41.63;30.80;60.49;;
60503;Laerm;51448;51.660;5.824;2024-02-14T00:48:20;37.56;31.02;55.53;;
60503;Laerm;51448;51.660;5.824;2024-02-14T00:50:48;34.76;30.70;47.54;;
60503;Laerm;51448;51.660;5.824;2024-02-14T00:53:16;38.85;30.94;54.66;;
60503;Laerm;51448;51.660;5.824;2024-02-14T00:55:43;38.44;30.93;56.01;;
60503;Laerm;51448;51.660;5.824;2024-02-14T00:58:11;38.82;30.77;60.40;;
60503;Laerm;51448;51.660;5.824;2024-02-14T01:00:38;40.62;30.34;64.31;;
60503;Laerm;51448;51.660;5.824;2024-02-14T01:03:06;34.97;30.48;54.50;;
60503;Laerm;51448;51.660;5.824;2024-02-14T01:05:34;38.33;30.44;62.00;;
60503;Laerm;51448;51.660;5.824;2024-02-14T01:08:02;36.64;30.42;54.01;;
60503;Laerm;51448;51.660;5.824;2024-02-14T01:10:30;41.67;30.79;64.33;;
60503;Laerm;51448;51.660;5.824;2024-02-14T01:12:57;34.91;30.86;47.54;;
60503;Laerm;51448;51.660;5.824;2024-02-14T01:15:25;35.80;30.79;51.61;;
60503;Laerm;51448;51.660;5.824;2024-02-14T01:17:53;36.51;30.88;52.35;;
60503;Laerm;51448;51.660;5.824;2024-02-14T01:20:21;35.76;31.03;54.80;;
60503;Laerm;51448;51.660;5.824;2024-02-14T01:22:48;35.32;30.48;46.16;;
60503;Laerm;51448;51.660;5.824;2024-02-14T01:25:16;34.18;30.58;44.75;;
60503;Laerm;51448;51.660;5.824;2024-02-14T01:27:43;35.05;30.41;51.54;;
60503;Laerm;51448;51.660;5.824;2024-02-14T01:30:11;33.92;30.41;44.56;;
60503;Laerm;51448;51.660;5.824;2024-02-14T01:32:39;39.15;30.20;57.55;;
60503;Laerm;51448;51.660;5.824;2024-02-14T01:35:07;33.22;30.22;46.68;;
60503;Laerm;51448;51.660;5.824;2024-02-14T01:37:37;36.85;30.46;51.62;;
60503;Laerm;51448;51.660;5.824;2024-02-14T01:40:06;35.06;30.68;51.69;;
60503;Laerm;51448;51.660;5.824;2024-02-14T01:42:35;38.45;30.41;54.26;;
60503;Laerm;51448;51.660;5.824;2024-02-14T01:45:02;35.03;30.93;55.55;;
60503;Laerm;51448;51.660;5.824;2024-02-14T01:47:30;33.53;30.44;50.14;;
60503;Laerm;51448;51.660;5.824;2024-02-14T01:50:00;38.01;30.31;62.68;;
60503;Laerm;51448;51.660;5.824;2024-02-14T01:52:28;34.66;30.12;55.76;;
60503;Laerm;51448;51.660;5.824;2024-02-14T01:54:56;32.07;29.81;40.99;;
60503;Laerm;51448;51.660;5.824;2024-02-14T01:57:24;35.83;31.34;54.13;;
60503;Laerm;51448;51.660;5.824;2024-02-14T01:59:54;35.81;30.55;48.44;;
60503;Laerm;51448;51.660;5.824;2024-02-14T02:02:24;35.66;30.44;54.18;;
60503;Laerm;51448;51.660;5.824;2024-02-14T02:04:53;37.64;30.84;53.76;;
60503;Laerm;51448;51.660;5.824;2024-02-14T02:07:21;36.26;30.15;53.14;;
60503;Laerm;51448;51.660;5.824;2024-02-14T02:09:49;36.62;29.95;51.93;;
60503;Laerm;51448;51.660;5.824;2024-02-14T02:12:17;40.73;30.56;64.85;;
60503;Laerm;51448;51.660;5.824;2024-02-14T02:14:44;36.04;30.42;50.79;;
60503;Laerm;51448;51.660;5.824;2024-02-14T02:17:12;36.90;30.62;50.77;;
60503;Laerm;51448;51.660;5.824;2024-02-14T02:19:39;33.76;30.21;44.40;;
60503;Laerm;51448;51.660;5.824;2024-02-14T02:22:07;35.40;30.88;48.08;;
60503;Laerm;51448;51.660;5.824;2024-02-14T02:24:35;37.81;31.15;51.43;;
60503;Laerm;51448;51.660;5.824;2024-02-14T02:27:04;34.03;30.92;47.20;;
60503;Laerm;51448;51.660;5.824;2024-02-14T02:29:32;39.78;30.92;62.88;;
60503;Laerm;51448;51.660;5.824;2024-02-14T02:32:00;35.11;30.98;49.02;;
60503;Laerm;51448;51.660;5.824;2024-02-14T02:34:27;35.24;30.27;56.85;;
60503;Laerm;51448;51.660;5.824;2024-02-14T02:36:55;37.60;30.47;55.72;;
60503;Laerm;51448;51.660;5.824;2024-02-14T02:39:23;33.49;30.42;43.32;;
60503;Laerm;51448;51.660;5.824;2024-02-14T02:41:51;39.23;30.34;56.23;;
60503;Laerm;51448;51.660;5.824;2024-02-14T02:44:19;33.50;30.32;45.80;;
60503;Laerm;51448;51.660;5.824;2024-02-14T02:46:47;35.58;30.52;51.55;;
60503;Laerm;51448;51.660;5.824;2024-02-14T02:49:14;39.70;30.00;63.32;;
60503;Laerm;51448;51.660;5.824;2024-02-14T02:51:42;33.91;30.51;57.13;;
60503;Laerm;51448;51.660;5.824;2024-02-14T02:54:10;33.38;29.95;46.69;;
60503;Laerm;51448;51.660;5.824;2024-02-14T02:56:39;35.13;30.39;46.62;;
60503;Laerm;51448;51.660;5.824;2024-02-14T02:59:08;35.74;30.44;56.14;;
60503;Laerm;51448;51.660;5.824;2024-02-14T03:01:36;36.92;30.26;62.35;;
60503;Laerm;51448;51.660;5.824;2024-02-14T03:04:04;35.55;30.10;48.30;;
60503;Laerm;51448;51.660;5.824;2024-02-14T03:06:32;34.79;31.04;53.07;;
60503;Laerm;51448;51.660;5.824;2024-02-14T03:08:59;34.04;30.49;44.91;;
60503;Laerm;51448;51.660;5.824;2024-02-14T03:11:27;36.01;30.20;59.59;;
60503;Laerm;51448;51.660;5.824;2024-02-14T03:13:55;33.96;30.06;51.87;;
60503;Laerm;51448;51.660;5.824;2024-02-14T03:16:22;35.05;30.63;48.28;;
60503;Laerm;51448;51.660;5.824;2024-02-14T03:18:52;35.73;30.73;56.97;;
60503;Laerm;51448;51.660;5.824;2024-02-14T03:21:21;34.71;30.27;55.19;;
60503;Laerm;51448;51.660;5.824;2024-02-14T03:23:49;35.30;29.99;53.39;;
60503;Laerm;51448;51.660;5.824;2024-02-14T03:26:17;34.79;30.43;53.99;;
60503;Laerm;51448;51.660;5.824;2024-02-14T03:28:45;33.49;30.24;54.46;;
60503;Laerm;51448;51.660;5.824;2024-02-14T03:31:13;33.00;30.37;43.30;;
60503;Laerm;51448;51.660;5.824;2024-02-14T03:33:43;35.17;30.57;47.25;;
60503;Laerm;51448;51.660;5.824;2024-02-14T03:36:11;33.87;30.38;50.91;;
60503;Laerm;51448;51.660;5.824;2024-02-14T03:38:40;36.39;31.52;50.76;;
60503;Laerm;51448;51.660;5.824;2024-02-14T03:41:09;35.25;31.35;51.41;;
60503;Laerm;51448;51.660;5.824;2024-02-14T03:43:37;33.19;30.49;49.25;;
60503;Laerm;51448;51.660;5.824;2024-02-14T03:46:04;38.91;30.44;62.63;;
60503;Laerm;51448;51.660;5.824;2024-02-14T03:48:34;33.87;30.61;48.61;;
60503;Laerm;51448;51.660;5.824;2024-02-14T03:51:03;32.84;30.54;44.82;;
60503;Laerm;51448;51.660;5.824;2024-02-14T03:53:31;41.08;31.09;59.79;;
60503;Laerm;51448;51.660;5.824;2024-02-14T03:56:00;35.10;31.03;50.43;;
60503;Laerm;51448;51.660;5.824;2024-02-14T03:58:28;37.30;31.45;48.64;;
60503;Laerm;51448;51.660;5.824;2024-02-14T04:00:56;34.79;31.07;48.19;;
60503;Laerm;51448;51.660;5.824;2024-02-14T04:03:24;44.51;30.33;68.98;;
60503;Laerm;51448;51.660;5.824;2024-02-14T04:05:51;35.48;30.82;60.19;;
60503;Laerm;51448;51.660;5.824;2024-02-14T04:08:19;33.77;30.26;49.83;;
60503;Laerm;51448;51.660;5.824;2024-02-14T04:10:47;36.36;30.94;57.03;;
60503;Laerm;51448;51.660;5.824;2024-02-14T04:13:14;40.34;31.05;58.39;;
60503;Laerm;51448;51.660;5.824;2024-02-14T04:15:42;36.84;32.36;52.08;;
60503;Laerm;51448;51.660;5.824;2024-02-14T04:18:10;35.69;31.15;51.98;;
60503;Laerm;51448;51.660;5.824;2024-02-14T04:20:38;34.83;30.62;47.29;;
60503;Laerm;51448;51.660;5.824;2024-02-14T04:23:06;34.54;31.78;47.79;;
60503;Laerm;51448;51.660;5.824;2024-02-14T04:25:35;38.78;31.02;53.49;;
60503;Laerm;51448;51.660;5.824;2024-02-14T04:28:04;34.79;30.96;51.46;;
60503;Laerm;51448;51.660;5.824;2024-02-14T04:30:32;36.58;31.35;52.37;;
60503;Laerm;51448;51.660;5.824;2024-02-14T04:32:59;41.00;31.23;57.86;;
60503;Laerm;51448;51.660;5.824;2024-02-14T04:35:27;38.35;31.45;54.14;;
60503;Laerm;51448;51.660;5.824;2024-02-14T04:37:54;35.47;31.54;52.17;;
60503;Laerm;51448;51.660;5.824;2024-02-14T04:40:22;39.06;30.59;59.65;;
60503;Laerm;51448;51.660;5.824;2024-02-14T04:42:50;39.24;31.51;59.27;;
60503;Laerm;51448;51.660;5.824;2024-02-14T04:45:18;42.58;31.84;59.83;;
60503;Laerm;51448;51.660;5.824;2024-02-14T04:47:45;35.14;31.01;49.80;;
60503;Laerm;51448;51.660;5.824;2024-02-14T04:50:13;41.00;31.73;55.42;;
60503;Laerm;51448;51.660;5.824;2024-02-14T04:52:41;41.38;30.59;58.08;;
60503;Laerm;51448;51.660;5.824;2024-02-14T04:55:09;35.29;30.94;52.58;;
60503;Laerm;51448;51.660;5.824;2024-02-14T04:57:36;39.46;30.86;55.27;;
60503;Laerm;51448;51.660;5.824;2024-02-14T05:00:05;33.35;30.40;46.70;;
60503;Laerm;51448;51.660;5.824;2024-02-14T05:02:33;41.06;31.51;55.92;;
60503;Laerm;51448;51.660;5.824;2024-02-14T05:05:01;40.23;31.58;57.67;;
60503;Laerm;51448;51.660;5.824;2024-02-14T05:07:29;39.34;31.55;52.40;;
60503;Laerm;51448;51.660;5.824;2024-02-14T05:09:56;41.83;32.71;56.93;;
60503;Laerm;51448;51.660;5.824;2024-02-14T05:12:24;42.09;32.84;55.59;;
60503;Laerm;51448;51.660;5.824;2024-02-14T05:14:52;41.08;31.24;55.49;;
60503;Laerm;51448;51.660;5.824;2024-02-14T05:17:20;43.95;32.05;56.91;;
60503;Laerm;51448;51.660;5.824;2024-02-14T05:19:48;46.03;32.32;60.38;;
60503;Laerm;51448;51.660;5.824;2024-02-14T05:22:15;42.94;31.59;60.61;;
60503;Laerm;51448;51.660;5.824;2024-02-14T05:24:43;43.12;31.93;59.67;;
60503;Laerm;51448;51.660;5.824;2024-02-14T05:27:10;38.34;31.99;52.07;;
60503;Laerm;51448;51.660;5.824;2024-02-14T05:29:38;45.94;33.71;58.40;;
60503;Laerm;51448;51.660;5.824;2024-02-14T05:32:06;40.07;33.17;52.48;;
60503;Laerm;51448;51.660;5.824;2024-02-14T05:34:37;39.68;33.71;52.49;;
60503;Laerm;51448;51.660;5.824;2024-02-14T05:37:05;42.68;33.17;58.30;;
60503;Laerm;51448;51.660;5.824;2024-02-14T05:39:33;43.61;34.17;58.69;;
60503;Laerm;51448;51.660;5.824;2024-02-14T05:42:01;44.85;34.15;59.28;;
60503;Laerm;51448;51.660;5.824;2024-02-14T05:44:30;43.14;32.95;55.51;;
60503;Laerm;51448;51.660;5.824;2024-02-14T05:46:58;41.70;32.92;60.80;;
60503;Laerm;51448;51.660;5.824;2024-02-14T05:49:26;44.23;33.71;59.90;;
60503;Laerm;51448;51.660;5.824;2024-02-14T05:51:53;43.22;32.67;60.07;;
60503;Laerm;51448;51.660;5.824;2024-02-14T05:54:21;45.10;33.71;55.10;;
60503;Laerm;51448;51.660;5.824;2024-02-14T05:56:48;46.10;34.30;60.12;;
60503;Laerm;51448;51.660;5.824;2024-02-14T05:59:16;41.40;32.02;55.87;;
60503;Laerm;51448;51.660;5.824;2024-02-14T06:01:44;42.17;32.07;58.40;;
60503;Laerm;51448;51.660;5.824;2024-02-14T06:04:12;39.02;33.94;52.08;;
60503;Laerm;51448;51.660;5.824;2024-02-14T06:06:39;44.38;33.73;59.66;;
60503;Laerm;51448;51.660;5.824;2024-02-14T06:09:07;45.14;32.67;64.75;;
60503;Laerm;51448;51.660;5.824;2024-02-14T06:11:39;43.24;32.52;56.64;;
60503;Laerm;51448;51.660;5.824;2024-02-14T06:14:07;41.74;32.86;62.72;;
60503;Laerm;51448;51.660;5.824;2024-02-14T06:16:35;46.20;32.57;59.05;;
60503;Laerm;51448;51.660;5.824;2024-02-14T06:19:04;43.99;32.30;62.66;;
60503;Laerm;51448;51.660;5.824;2024-02-14T06:22:08;51.27;33.35;76.52;;
60503;Laerm;51448;51.660;5.824;2024-02-14T06:24:36;44.77;33.92;59.34;;
60503;Laerm;51448;51.660;5.824;2024-02-14T06:27:04;40.46;33.19;60.90;;
60503;Laerm;51448;51.660;5.824;2024-02-14T06:29:32;42.25;33.46;65.01;;
60503;Laerm;51448;51.660;5.824;2024-02-14T06:31:59;46.04;34.23;60.05;;
60503;Laerm;51448;51.660;5.824;2024-02-14T06:34:27;47.44;32.98;75.10;;
60503;Laerm;51448;51.660;5.824;2024-02-14T06:36:56;47.08;34.45;60.19;;
60503;Laerm;51448;51.660;5.824;2024-02-14T06:39:23;45.13;34.42;61.69;;
60503;Laerm;51448;51.660;5.824;2024-02-14T06:41:51;45.48;34.83;59.12;;
60503;Laerm;51448;51.660;5.824;2024-02-14T06:44:18;49.39;34.56;67.51;;
60503;Laerm;51448;51.660;5.824;2024-02-14T06:46:46;47.04;34.03;67.57;;
60503;Laerm;51448;51.660;5.824;2024-02-14T06:49:15;47.39;34.60;76.44;;
60503;Laerm;51448;51.660;5.824;2024-02-14T06:51:43;43.56;34.02;59.87;;
60503;Laerm;51448;51.660;5.824;2024-02-14T06:54:12;44.01;34.09;54.59;;
60503;Laerm;51448;51.660;5.824;2024-02-14T06:56:44;48.85;34.08;74.26;;
60503;Laerm;51448;51.660;5.824;2024-02-14T06:59:12;43.56;34.64;60.77;;
60503;Laerm;51448;51.660;5.824;2024-02-14T07:01:39;47.80;34.19;59.52;;
60503;Laerm;51448;51.660;5.824;2024-02-14T07:04:07;44.71;33.57;56.22;;
60503;Laerm;51448;51.660;5.824;2024-02-14T07:06:36;44.67;34.19;67.92;;
60503;Laerm;51448;51.660;5.824;2024-02-14T07:09:04;45.60;34.14;57.01;;
60503;Laerm;51448;51.660;5.824;2024-02-14T07:11:31;45.28;34.18;58.61;;
60503;Laerm;51448;51.660;5.824;2024-02-14T07:13:59;47.31;35.71;59.64;;
60503;Laerm;51448;51.660;5.824;2024-02-14T07:16:27;43.20;33.98;57.64;;
60503;Laerm;51448;51.660;5.824;2024-02-14T07:18:54;44.66;34.25;57.23;;
60503;Laerm;51448;51.660;5.824;2024-02-14T07:21:23;43.26;33.86;61.66;;
60503;Laerm;51448;51.660;5.824;2024-02-14T07:23:50;45.52;34.61;57.07;;
60503;Laerm;51448;51.660;5.824;2024-02-14T07:26:18;43.98;33.87;57.41;;
60503;Laerm;51448;51.660;5.824;2024-02-14T07:28:45;44.00;33.41;60.66;;
60503;Laerm;51448;51.660;5.824;2024-02-14T07:31:13;45.42;33.71;62.67;;
60503;Laerm;51448;51.660;5.824;2024-02-14T07:33:40;46.59;35.53;73.82;;
60503;Laerm;51448;51.660;5.824;2024-02-14T07:36:08;46.72;35.29;64.93;;
60503;Laerm;51448;51.660;5.824;2024-02-14T07:38:36;44.71;35.60;61.99;;
60503;Laerm;51448;51.660;5.824;2024-02-14T07:41:04;43.74;34.37;55.60;;
60503;Laerm;51448;51.660;5.824;2024-02-14T07:43:31;53.36;34.15;85.40;;
60503;Laerm;51448;51.660;5.824;2024-02-14T07:45:59;45.75;34.29;62.14;;
60503;Laerm;51448;51.660;5.824;2024-02-14T07:48:27;49.44;33.39;81.18;;
60503;Laerm;51448;51.660;5.824;2024-02-14T07:50:54;46.09;33.71;58.71;;
60503;Laerm;51448;51.660;5.824;2024-02-14T07:53:23;45.24;33.98;60.21;;
60503;Laerm;51448;51.660;5.824;2024-02-14T07:55:51;45.13;34.17;63.88;;
60503;Laerm;51448;51.660;5.824;2024-02-14T07:58:20;40.33;34.30;53.21;;
60503;Laerm;51448;51.660;5.824;2024-02-14T08:00:47;45.16;34.25;58.96;;
60503;Laerm;51448;51.660;5.824;2024-02-14T08:03:15;45.52;34.65;57.17;;
60503;Laerm;51448;51.660;5.824;2024-02-14T08:05:42;45.03;34.57;58.40;;
60503;Laerm;51448;51.660;5.824;2024-02-14T08:08:10;44.86;35.24;55.00;;
60503;Laerm;51448;51.660;5.824;2024-02-14T08:10:38;45.15;33.95;56.05;;
60503;Laerm;51448;51.660;5.824;2024-02-14T08:13:06;43.55;34.78;54.82;;
60503;Laerm;51448;51.660;5.824;2024-02-14T08:15:33;43.66;33.91;60.06;;
60503;Laerm;51448;51.660;5.824;2024-02-14T08:18:01;51.71;33.38;74.03;;
60503;Laerm;51448;51.660;5.824;2024-02-14T08:20:35;47.61;33.79;73.23;;
60503;Laerm;51448;51.660;5.824;2024-02-14T08:23:04;51.54;33.67;75.80;;
60503;Laerm;51448;51.660;5.824;2024-02-14T08:25:31;44.73;33.77;63.65;;
60503;Laerm;51448;51.660;5.824;2024-02-14T08:27:59;49.38;35.33;65.05;;
60503;Laerm;51448;51.660;5.824;2024-02-14T08:30:26;42.32;33.06;56.27;;
60503;Laerm;51448;51.660;5.824;2024-02-14T08:32:55;44.34;33.91;58.94;;
60503;Laerm;51448;51.660;5.824;2024-02-14T08:35:22;44.21;33.79;65.14;;
60503;Laerm;51448;51.660;5.824;2024-02-14T08:37:50;45.08;33.38;59.69;;
60503;Laerm;51448;51.660;5.824;2024-02-14T08:40:17;53.72;35.20;76.52;;
60503;Laerm;51448;51.660;5.824;2024-02-14T08:42:45;46.17;35.86;68.32;;
60503;Laerm;51448;51.660;5.824;2024-02-14T08:45:13;45.07;34.28;68.24;;
60503;Laerm;51448;51.660;5.824;2024-02-14T08:47:43;43.94;34.05;65.16;;
60503;Laerm;51448;51.660;5.824;2024-02-14T08:50:11;52.11;33.55;84.53;;
60503;Laerm;51448;51.660;5.824;2024-02-14T08:52:39;43.62;34.10;61.73;;
60503;Laerm;51448;51.660;5.824;2024-02-14T08:55:07;43.98;33.99;60.98;;
60503;Laerm;51448;51.660;5.824;2024-02-14T08:57:41;46.24;34.40;56.19;;
60503;Laerm;51448;51.660;5.824;2024-02-14T09:00:09;44.63;34.90;57.20;;
60503;Laerm;51448;51.660;5.824;2024-02-14T09:02:38;55.23;35.95;66.80;;
60503;Laerm;51448;51.660;5.824;2024-02-14T09:05:06;45.35;35.67;63.26;;
60503;Laerm;51448;51.660;5.824;2024-02-14T09:07:33;54.00;35.07;65.40;;
60503;Laerm;51448;51.660;5.824;2024-02-14T09:10:01;46.44;34.69;67.89;;
60503;Laerm;51448;51.660;5.824;2024-02-14T09:12:28;45.38;34.03;57.27;;
60503;Laerm;51448;51.660;5.824;2024-02-14T09:14:56;43.25;34.67;59.47;;
60503;Laerm;51448;51.660;5.824;2024-02-14T09:17:24;45.27;35.33;58.78;;
60503;Laerm;51448;51.660;5.824;2024-02-14T09:19:52;53.34;38.55;72.77;;
60503;Laerm;51448;51.660;5.824;2024-02-14T09:22:20;52.03;39.09;76.48;;
60503;Laerm;51448;51.660;5.824;2024-02-14T09:24:50;50.41;39.55;68.81;;
60503;Laerm;51448;51.660;5.824;2024-02-14T09:27:17;53.92;36.35;70.76;;
60503;Laerm;51448;51.660;5.824;2024-02-14T09:29:45;47.62;35.23;59.06;;
60503;Laerm;51448;51.660;5.824;2024-02-14T09:32:13;44.91;35.75;59.27;;
60503;Laerm;51448;51.660;5.824;2024-02-14T09:34:41;44.90;35.38;67.24;;
60503;Laerm;51448;51.660;5.824;2024-02-14T09:37:09;43.63;35.49;60.75;;
60503;Laerm;51448;51.660;5.824;2024-02-14T09:39:36;42.29;35.01;59.92;;
60503;Laerm;51448;51.660;5.824;2024-02-14T09:42:16;59.25;35.15;76.39;;
60503;Laerm;51448;51.660;5.824;2024-02-14T09:44:51;47.75;33.95;60.13;;
60503;Laerm;51448;51.660;5.824;2024-02-14T09:47:20;45.08;34.92;57.20;;
60503;Laerm;51448;51.660;5.824;2024-02-14T09:49:50;39.81;34.83;50.37;;
60503;Laerm;51448;51.660;5.824;2024-02-14T09:52:21;39.36;33.75;49.90;;
60503;Laerm;51448;51.660;5.824;2024-02-14T09:54:52;43.86;34.57;55.97;;
60503;Laerm;51448;51.660;5.824;2024-02-14T09:57:21;44.34;34.28;59.33;;
60503;Laerm;51448;51.660;5.824;2024-02-14T09:59:50;40.94;33.50;56.32;;
60503;Laerm;51448;51.660;5.824;2024-02-14T10:02:19;42.17;34.77;54.89;;
60503;Laerm;51448;51.660;5.824;2024-02-14T10:04:49;49.92;36.67;65.99;;
60503;Laerm;51448;51.660;5.824;2024-02-14T10:07:18;46.12;34.27;60.42;;
60503;Laerm;51448;51.660;5.824;2024-02-14T10:09:46;47.75;34.14;69.58;;
60503;Laerm;51448;51.660;5.824;2024-02-14T10:12:14;48.11;35.35;71.94;;
60503;Laerm;51448;51.660;5.824;2024-02-14T10:14:41;42.00;34.01;64.44;;
60503;Laerm;51448;51.660;5.824;2024-02-14T10:17:18;45.64;35.38;57.91;;
60503;Laerm;51448;51.660;5.824;2024-02-14T10:20:00;44.65;33.08;62.12;;
60503;Laerm;51448;51.660;5.824;2024-02-14T10:22:37;51.56;34.68;66.29;;
60503;Laerm;51448;51.660;5.824;2024-02-14T10:25:06;47.18;33.84;64.76;;
60503;Laerm;51448;51.660;5.824;2024-02-14T10:27:37;41.90;33.63;56.09;;
60503;Laerm;51448;51.660;5.824;2024-02-14T10:30:07;59.87;33.91;86.51;;
60503;Laerm;51448;51.660;5.824;2024-02-14T10:32:41;60.24;34.22;82.16;;
60503;Laerm;51448;51.660;5.824;2024-02-14T10:35:15;44.57;35.09;58.40;;
60503;Laerm;51448;51.660;5.824;2024-02-14T10:37:47;44.77;34.75;55.57;;
60503;Laerm;51448;51.660;5.824;2024-02-14T10:40:15;43.93;33.10;54.30;;
60503;Laerm;51448;51.660;5.824;2024-02-14T10:42:43;44.17;34.80;63.45;;
60503;Laerm;51448;51.660;5.824;2024-02-14T10:45:11;44.94;34.82;60.86;;
60503;Laerm;51448;51.660;5.824;2024-02-14T10:47:42;46.29;34.65;65.29;;
60503;Laerm;51448;51.660;5.824;2024-02-14T10:50:15;47.93;33.84;69.10;;
60503;Laerm;51448;51.660;5.824;2024-02-14T10:52:44;46.75;34.78;59.89;;
60503;Laerm;51448;51.660;5.824;2024-02-14T10:55:16;50.59;34.41;67.57;;
60503;Laerm;51448;51.660;5.824;2024-02-14T10:57:45;51.60;34.20;75.17;;
60503;Laerm;51448;51.660;5.824;2024-02-14T11:00:16;43.71;34.47;56.71;;
60503;Laerm;51448;51.660;5.824;2024-02-14T11:02:45;44.14;33.87;54.62;;
60503;Laerm;51448;51.660;5.824;2024-02-14T11:05:15;44.09;31.96;57.03;;
60503;Laerm;51448;51.660;5.824;2024-02-14T11:07:46;41.36;32.58;58.14;;
60503;Laerm;51448;51.660;5.824;2024-02-14T11:10:17;41.95;34.38;54.23;;
60503;Laerm;51448;51.660;5.824;2024-02-14T11:12:47;43.69;34.02;57.18;;
60503;Laerm;51448;51.660;5.824;2024-02-14T11:15:22;46.49;34.06;56.51;;
60503;Laerm;51448;51.660;5.824;2024-02-14T11:17:51;44.73;34.53;58.13;;
60503;Laerm;51448;51.660;5.824;2024-02-14T11:20:30;42.94;33.93;61.70;;
60503;Laerm;51448;51.660;5.824;2024-02-14T11:23:06;47.28;34.23;70.31;;
60503;Laerm;51448;51.660;5.824;2024-02-14T11:25:38;46.00;34.35;64.17;;
60503;Laerm;51448;51.660;5.824;2024-02-14T11:30:43;47.54;37.40;61.23;;
60503;Laerm;51448;51.660;5.824;2024-02-14T11:33:22;50.31;38.28;62.01;;
60503;Laerm;51448;51.660;5.824;2024-02-14T11:35:54;55.74;33.91;83.31;;
60503;Laerm;51448;51.660;5.824;2024-02-14T11:38:24;42.82;34.14;68.50;;
60503;Laerm;51448;51.660;5.824;2024-02-14T11:40:57;44.70;34.11;57.14;;
60503;Laerm;51448;51.660;5.824;2024-02-14T11:43:25;43.28;33.54;56.25;;
60503;Laerm;51448;51.660;5.824;2024-02-14T11:45:52;42.86;32.58;59.88;;
60503;Laerm;51448;51.660;5.824;2024-02-14T11:48:21;46.72;33.01;68.80;;
60503;Laerm;51448;51.660;5.824;2024-02-14T11:50:54;50.99;33.72;80.49;;
60503;Laerm;51448;51.660;5.824;2024-02-14T11:53:23;47.50;34.04;76.23;;
60503;Laerm;51448;51.660;5.824;2024-02-14T11:55:50;45.97;32.94;65.34;;
60503;Laerm;51448;51.660;5.824;2024-02-14T11:58:19;63.34;33.59;90.80;;
60503;Laerm;51448;51.660;5.824;2024-02-14T12:00:47;42.71;32.46;65.47;;
60503;Laerm;51448;51.660;5.824;2024-02-14T12:03:22;45.68;32.88;70.76;;
60503;Laerm;51448;51.660;5.824;2024-02-14T12:05:51;45.75;33.95;70.02;;
60503;Laerm;51448;51.660;5.824;2024-02-14T12:08:20;42.08;32.87;60.71;;
60503;Laerm;51448;51.660;5.824;2024-02-14T12:10:49;47.47;34.50;60.55;;
60503;Laerm;51448;51.660;5.824;2024-02-14T12:13:21;47.38;34.07;60.90;;
60503;Laerm;51448;51.660;5.824;2024-02-14T12:15:51;42.44;33.88;54.50;;
60503;Laerm;51448;51.660;5.824;2024-02-14T12:18:20;56.24;32.99;70.75;;
60503;Laerm;51448;51.660;5.824;2024-02-14T12:20:49;60.30;36.48;74.28;;
60503;Laerm;51448;51.660;5.824;2024-02-14T12:23:23;46.72;35.30;65.45;;
60503;Laerm;51448;51.660;5.824;2024-02-14T12:26:01;44.67;35.00;65.05;;
60503;Laerm;51448;51.660;5.824;2024-02-14T12:28:30;48.16;34.44;74.85;;
60503;Laerm;51448;51.660;5.824;2024-02-14T12:30:58;49.01;35.92;63.92;;
60503;Laerm;51448;51.660;5.824;2024-02-14T12:33:27;55.62;49.91;62.53;;
60503;Laerm;51448;51.660;5.824;2024-02-14T12:35:56;52.49;39.22;65.09;;
60503;Laerm;51448;51.660;5.824;2024-02-14T12:38:25;44.89;35.50;62.49;;
60503;Laerm;51448;51.660;5.824;2024-02-14T12:40:52;48.68;35.94;66.78;;
60503;Laerm;51448;51.660;5.824;2024-02-14T12:43:23;45.45;35.61;60.26;;
60503;Laerm;51448;51.660;5.824;2024-02-14T12:45:50;43.74;35.22;58.54;;
60503;Laerm;51448;51.660;5.824;2024-02-14T12:48:23;51.75;41.71;63.55;;
60503;Laerm;51448;51.660;5.824;2024-02-14T12:50:56;53.11;44.20;64.33;;
60503;Laerm;51448;51.660;5.824;2024-02-14T12:53:25;50.04;38.15;63.06;;
60503;Laerm;51448;51.660;5.824;2024-02-14T12:55:53;47.98;37.07;64.17;;
60503;Laerm;51448;51.660;5.824;2024-02-14T12:58:20;52.43;42.68;62.54;;
60503;Laerm;51448;51.660;5.824;2024-02-14T13:00:48;51.88;42.78;63.76;;
60503;Laerm;51448;51.660;5.824;2024-02-14T13:03:16;51.74;38.91;60.96;;
60503;Laerm;51448;51.660;5.824;2024-02-14T13:05:45;47.95;39.18;60.65;;
60503;Laerm;51448;51.660;5.824;2024-02-14T13:08:14;49.44;41.94;60.81;;
60503;Laerm;51448;51.660;5.824;2024-02-14T13:10:44;47.88;35.24;60.77;;
60503;Laerm;51448;51.660;5.824;2024-02-14T13:13:12;41.39;34.43;56.19;;
60503;Laerm;51448;51.660;5.824;2024-02-14T13:15:41;44.33;34.33;58.13;;
60503;Laerm;51448;51.660;5.824;2024-02-14T13:18:11;45.44;33.54;65.51;;
60503;Laerm;51448;51.660;5.824;2024-02-14T13:20:39;45.53;34.72;64.42;;
60503;Laerm;51448;51.660;5.824;2024-02-14T13:23:07;51.52;34.28;74.04;;
60503;Laerm;51448;51.660;5.824;2024-02-14T13:25:36;50.79;33.64;72.56;;
60503;Laerm;51448;51.660;5.824;2024-02-14T13:28:04;40.40;33.80;53.83;;
60503;Laerm;51448;51.660;5.824;2024-02-14T13:30:33;45.32;35.05;57.88;;
60503;Laerm;51448;51.660;5.824;2024-02-14T13:33:00;46.79;35.88;64.15;;
60503;Laerm;51448;51.660;5.824;2024-02-14T13:35:28;48.30;34.95;66.21;;
60503;Laerm;51448;51.660;5.824;2024-02-14T13:37:56;52.60;35.73;81.49;;
60503;Laerm;51448;51.660;5.824;2024-02-14T13:40:23;51.59;34.72;79.20;;
60503;Laerm;51448;51.660;5.824;2024-02-14T13:42:51;46.98;34.71;63.50;;
60503;Laerm;51448;51.660;5.824;2024-02-14T13:45:19;46.63;35.49;63.12;;
60503;Laerm;51448;51.660;5.824;2024-02-14T13:47:46;48.42;36.51;59.28;;
60503;Laerm;51448;51.660;5.824;2024-02-14T13:50:14;42.76;36.33;56.40;;
60503;Laerm;51448;51.660;5.824;2024-02-14T13:52:42;43.44;35.23;56.86;;
60503;Laerm;51448;51.660;5.824;2024-02-14T13:55:10;47.24;34.39;57.49;;